This is the latest recevied weather packets stored in our database for station/object K9RCP-20. If no packets are shown the sender has not sent any weather packets the latest 10 day(s).
| Time | Temp. | Humidity | Pressure | Rain* | Wind** | Luminosity | Snow |
|---|---|---|---|---|---|---|---|
| 1778183932 | 18.89° C | 49% | 1016.9 hPa | 0 mm | - | 723 W/m² | - |
| 1778183630 | 19.44° C | 49% | 1017 hPa | 0 mm | - | 729 W/m² | - |
| 1778183327 | 18.89° C | 50% | 1017 hPa | 0 mm | - | 716 W/m² | - |
| 1778183024 | 18.89° C | 50% | 1017.1 hPa | 0 mm | - | 733 W/m² | - |
| 1778182720 | 18.33° C | 52% | 1016.9 hPa | 0 mm | - | 725 W/m² | - |
| 1778182417 | 19.44° C | 49% | 1017.1 hPa | 0 mm | - | 724 W/m² | - |
| 1778182113 | 18.33° C | 52% | 1017.2 hPa | 0 mm | - | 719 W/m² | - |
| 1778181810 | 18.33° C | 52% | 1017.4 hPa | 0 mm | - | 720 W/m² | - |
| 1778181507 | 17.78° C | 55% | 1017.2 hPa | 0 mm | - | 722 W/m² | - |
| 1778181203 | 17.78° C | 53% | 1017.3 hPa | 0 mm | - | 707 W/m² | - |
| 1778180900 | 16.67° C | 56% | 1017.4 hPa | 0 mm | - | 678 W/m² | - |
| 1778180598 | 17.78° C | 54% | 1017.6 hPa | 0 mm | - | 630 W/m² | - |
| 1778180297 | 17.22° C | 54% | 1017.3 hPa | 0 mm | - | 561 W/m² | - |
| 1778179993 | 17.78° C | 54% | 1017.5 hPa | 0 mm | - | 700 W/m² | - |
| 1778179690 | 17.22° C | 54% | 1017.5 hPa | 0 mm | - | 698 W/m² | - |
| 1778179388 | 17.22° C | 54% | 1017.8 hPa | 0 mm | - | 706 W/m² | - |
| 1778179085 | 16.67° C | 58% | 1017.5 hPa | 0 mm | - | 244 W/m² | - |
| 1778178782 | 16.67° C | 57% | 1017.7 hPa | 0 mm | - | 675 W/m² | - |
| 1778178480 | 17.22° C | 56% | 1017.7 hPa | 0 mm | - | 531 W/m² | - |
| 1778178180 | 17.78° C | 55% | 1017.8 hPa | 0 mm | - | 693 W/m² | - |
| 1778177877 | 15.56° C | 58% | 1017.9 hPa | 0 mm | - | 706 W/m² | - |
| 1778177573 | 16.11° C | 60% | 1017.9 hPa | 0 mm | - | 262 W/m² | - |
| 1778177270 | 16.11° C | 61% | 1018 hPa | 0 mm | - | 735 W/m² | - |
| 1778176967 | 15.56° C | 61% | 1018 hPa | 0 mm | - | 715 W/m² | - |
| 1778176662 | 15.56° C | 61% | 1018.1 hPa | 0 mm | - | 698 W/m² | - |
* Rain latest hour (hover to see other rain measurements)
** Current wind speed in m/s (hover to see current wind gust speed)